Moreton-in-Marsh, United Kingdom
Current Conditions -  °F | °C
As of 4:50 AM on Wednesday 26 Nov 2014 (Local Time) from EGVN Reporting Station
Haze Haze  
Wind Chill: 41°   Ceiling: 600
Heat Index: 45°   Visibility: 2.3mi
Dew Point: 43°   Wind: 6mph
Humidity: 93%   Direction: 40°NE
Pressure: 29.88"   Gusts: NA
Location:  51.99°N, 1.7°W
Report Text: EGVN 260450Z 04005KT 3800 BR FEW004 BKN006 07/06 Q1012 YLO1 BECMG 5000 BKN008 GRN
Loading
Personal Weather Stations






























Interactive Weather Map New forecast layout! Learn more

10-Day Weather Forecast

Advertisements
Track Severe Weather on mobile